Terminal Aerodrome Forecast
Issued by NWS Sterling, VA

Current Version | Previous Version | Graphics & Text | Print | Product List | Glossary On
Versions: 1 2 3 4 5 6 7 8 9 10 11 12 13 14 15 16 17 18 19 20 21 22 23 24 25 26 27 28
000
FTUS41 KLWX 270600 AAA
TAFIAD
TAF AMD
KIAD 270644Z 2707/2812 34010KT 6SM BR OVC035
     FM271000 32014G23KT P6SM OVC025
     FM280100 32014KT P6SM SCT050
     FM280900 32011KT P6SM FEW150=

USA.gov is the U.S. government's official web portal to all federal, state and local government web resources and services.